sensor_id;sensor_type;location;lat;lon;timestamp;P1;durP1;ratioP1;P2;durP2;ratioP2
24813;SDS011;12904;50.088;11.414;2023-04-10T00:02:07;26.48;;;18.95;;
24813;SDS011;12904;50.088;11.414;2023-04-10T00:04:33;26.58;;;18.15;;
24813;SDS011;12904;50.088;11.414;2023-04-10T00:06:58;24.17;;;17.73;;
24813;SDS011;12904;50.088;11.414;2023-04-10T00:09:24;23.10;;;16.70;;
24813;SDS011;12904;50.088;11.414;2023-04-10T00:11:50;24.73;;;17.25;;
24813;SDS011;12904;50.088;11.414;2023-04-10T00:14:16;23.70;;;17.65;;
24813;SDS011;12904;50.088;11.414;2023-04-10T00:16:47;22.55;;;16.48;;
24813;SDS011;12904;50.088;11.414;2023-04-10T00:19:13;18.60;;;15.55;;
24813;SDS011;12904;50.088;11.414;2023-04-10T00:21:39;19.27;;;15.25;;
24813;SDS011;12904;50.088;11.414;2023-04-10T00:24:05;21.02;;;16.52;;
24813;SDS011;12904;50.088;11.414;2023-04-10T00:26:30;21.40;;;15.85;;
24813;SDS011;12904;50.088;11.414;2023-04-10T00:28:56;20.25;;;15.85;;
24813;SDS011;12904;50.088;11.414;2023-04-10T00:31:21;20.52;;;16.15;;
24813;SDS011;12904;50.088;11.414;2023-04-10T00:33:47;25.90;;;17.27;;
24813;SDS011;12904;50.088;11.414;2023-04-10T00:36:13;22.40;;;16.77;;
24813;SDS011;12904;50.088;11.414;2023-04-10T00:38:38;24.10;;;17.60;;
24813;SDS011;12904;50.088;11.414;2023-04-10T00:41:04;25.17;;;17.75;;
24813;SDS011;12904;50.088;11.414;2023-04-10T00:43:30;22.20;;;16.13;;
24813;SDS011;12904;50.088;11.414;2023-04-10T00:45:56;18.48;;;14.60;;
24813;SDS011;12904;50.088;11.414;2023-04-10T00:48:21;16.08;;;12.43;;
24813;SDS011;12904;50.088;11.414;2023-04-10T00:50:47;16.00;;;14.20;;
24813;SDS011;12904;50.088;11.414;2023-04-10T00:53:13;18.98;;;14.25;;
24813;SDS011;12904;50.088;11.414;2023-04-10T00:55:39;19.92;;;13.52;;
24813;SDS011;12904;50.088;11.414;2023-04-10T00:58:05;17.15;;;15.35;;
24813;SDS011;12904;50.088;11.414;2023-04-10T01:00:31;17.70;;;14.98;;
24813;SDS011;12904;50.088;11.414;2023-04-10T01:02:56;19.42;;;15.23;;
24813;SDS011;12904;50.088;11.414;2023-04-10T01:05:25;18.55;;;14.52;;
24813;SDS011;12904;50.088;11.414;2023-04-10T01:08:03;15.38;;;13.20;;
24813;SDS011;12904;50.088;11.414;2023-04-10T01:16:09;18.45;;;15.70;;
24813;SDS011;12904;50.088;11.414;2023-04-10T01:18:56;21.63;;;15.98;;
24813;SDS011;12904;50.088;11.414;2023-04-10T01:21:32;21.08;;;15.10;;
24813;SDS011;12904;50.088;11.414;2023-04-10T01:29:43;20.40;;;15.32;;
24813;SDS011;12904;50.088;11.414;2023-04-10T01:32:12;23.10;;;17.85;;
24813;SDS011;12904;50.088;11.414;2023-04-10T01:34:47;29.33;;;18.17;;
24813;SDS011;12904;50.088;11.414;2023-04-10T01:37:22;23.67;;;16.80;;
24813;SDS011;12904;50.088;11.414;2023-04-10T01:40:01;22.23;;;16.55;;
24813;SDS011;12904;50.088;11.414;2023-04-10T01:42:31;25.50;;;17.08;;
24813;SDS011;12904;50.088;11.414;2023-04-10T01:45:02;26.50;;;17.17;;
24813;SDS011;12904;50.088;11.414;2023-04-10T01:47:30;25.75;;;17.08;;
24813;SDS011;12904;50.088;11.414;2023-04-10T01:49:56;32.50;;;20.13;;
24813;SDS011;12904;50.088;11.414;2023-04-10T01:52:23;31.20;;;19.08;;
24813;SDS011;12904;50.088;11.414;2023-04-10T01:54:50;27.13;;;18.73;;
24813;SDS011;12904;50.088;11.414;2023-04-10T01:57:17;29.25;;;19.48;;
24813;SDS011;12904;50.088;11.414;2023-04-10T01:59:43;27.00;;;17.67;;
24813;SDS011;12904;50.088;11.414;2023-04-10T02:02:09;33.60;;;20.70;;
24813;SDS011;12904;50.088;11.414;2023-04-10T02:04:36;26.67;;;18.25;;
24813;SDS011;12904;50.088;11.414;2023-04-10T02:07:02;31.83;;;18.90;;
24813;SDS011;12904;50.088;11.414;2023-04-10T02:09:36;28.50;;;19.10;;
24813;SDS011;12904;50.088;11.414;2023-04-10T02:12:20;28.10;;;19.10;;
24813;SDS011;12904;50.088;11.414;2023-04-10T02:14:50;27.33;;;18.92;;
24813;SDS011;12904;50.088;11.414;2023-04-10T02:17:22;30.02;;;19.08;;
24813;SDS011;12904;50.088;11.414;2023-04-10T02:19:52;28.00;;;18.63;;
24813;SDS011;12904;50.088;11.414;2023-04-10T02:22:19;31.48;;;21.05;;
24813;SDS011;12904;50.088;11.414;2023-04-10T02:24:46;27.52;;;18.92;;
24813;SDS011;12904;50.088;11.414;2023-04-10T02:27:12;34.20;;;21.10;;
24813;SDS011;12904;50.088;11.414;2023-04-10T02:29:38;33.40;;;21.02;;
24813;SDS011;12904;50.088;11.414;2023-04-10T02:32:03;34.03;;;20.33;;
24813;SDS011;12904;50.088;11.414;2023-04-10T02:34:30;33.03;;;20.23;;
24813;SDS011;12904;50.088;11.414;2023-04-10T02:36:56;53.92;;;28.13;;
24813;SDS011;12904;50.088;11.414;2023-04-10T02:39:21;64.57;;;28.00;;
24813;SDS011;12904;50.088;11.414;2023-04-10T02:41:47;52.40;;;26.88;;
24813;SDS011;12904;50.088;11.414;2023-04-10T02:44:12;61.60;;;28.52;;
24813;SDS011;12904;50.088;11.414;2023-04-10T02:46:38;53.70;;;25.70;;
24813;SDS011;12904;50.088;11.414;2023-04-10T02:49:04;56.63;;;26.80;;
24813;SDS011;12904;50.088;11.414;2023-04-10T02:51:33;39.47;;;22.20;;
24813;SDS011;12904;50.088;11.414;2023-04-10T02:54:00;36.60;;;21.92;;
24813;SDS011;12904;50.088;11.414;2023-04-10T02:56:25;32.53;;;19.38;;
24813;SDS011;12904;50.088;11.414;2023-04-10T02:58:51;57.13;;;27.00;;
24813;SDS011;12904;50.088;11.414;2023-04-10T03:01:17;72.57;;;31.40;;
24813;SDS011;12904;50.088;11.414;2023-04-10T03:03:42;57.67;;;26.80;;
24813;SDS011;12904;50.088;11.414;2023-04-10T03:06:08;35.28;;;21.80;;
24813;SDS011;12904;50.088;11.414;2023-04-10T03:08:34;32.38;;;20.05;;
24813;SDS011;12904;50.088;11.414;2023-04-10T03:11:00;33.25;;;20.15;;
24813;SDS011;12904;50.088;11.414;2023-04-10T03:13:26;32.63;;;21.17;;
24813;SDS011;12904;50.088;11.414;2023-04-10T03:15:51;28.20;;;18.75;;
24813;SDS011;12904;50.088;11.414;2023-04-10T03:18:17;29.00;;;18.77;;
24813;SDS011;12904;50.088;11.414;2023-04-10T03:20:42;31.30;;;19.70;;
24813;SDS011;12904;50.088;11.414;2023-04-10T03:23:08;26.23;;;17.98;;
24813;SDS011;12904;50.088;11.414;2023-04-10T03:25:35;30.80;;;18.38;;
24813;SDS011;12904;50.088;11.414;2023-04-10T03:28:00;25.88;;;17.48;;
24813;SDS011;12904;50.088;11.414;2023-04-10T03:30:26;31.52;;;17.50;;
24813;SDS011;12904;50.088;11.414;2023-04-10T03:32:52;15.93;;;13.32;;
24813;SDS011;12904;50.088;11.414;2023-04-10T03:35:18;14.10;;;12.07;;
24813;SDS011;12904;50.088;11.414;2023-04-10T03:37:43;19.38;;;14.63;;
24813;SDS011;12904;50.088;11.414;2023-04-10T03:40:09;16.95;;;13.48;;
24813;SDS011;12904;50.088;11.414;2023-04-10T03:42:35;21.67;;;15.40;;
24813;SDS011;12904;50.088;11.414;2023-04-10T03:45:01;22.33;;;16.20;;
24813;SDS011;12904;50.088;11.414;2023-04-10T03:47:29;27.17;;;16.17;;
24813;SDS011;12904;50.088;11.414;2023-04-10T03:49:55;29.85;;;17.48;;
24813;SDS011;12904;50.088;11.414;2023-04-10T03:52:21;23.77;;;15.90;;
24813;SDS011;12904;50.088;11.414;2023-04-10T03:54:47;25.00;;;16.85;;
24813;SDS011;12904;50.088;11.414;2023-04-10T03:57:12;19.83;;;15.43;;
24813;SDS011;12904;50.088;11.414;2023-04-10T03:59:38;24.20;;;15.07;;
24813;SDS011;12904;50.088;11.414;2023-04-10T04:02:05;23.33;;;15.90;;
24813;SDS011;12904;50.088;11.414;2023-04-10T04:04:31;25.65;;;16.77;;
24813;SDS011;12904;50.088;11.414;2023-04-10T04:06:56;28.52;;;17.85;;
24813;SDS011;12904;50.088;11.414;2023-04-10T04:09:22;22.52;;;14.63;;
24813;SDS011;12904;50.088;11.414;2023-04-10T04:11:48;27.10;;;18.05;;
24813;SDS011;12904;50.088;11.414;2023-04-10T04:14:13;33.70;;;19.08;;
24813;SDS011;12904;50.088;11.414;2023-04-10T04:16:39;23.17;;;15.77;;
24813;SDS011;12904;50.088;11.414;2023-04-10T04:19:05;22.48;;;15.27;;
24813;SDS011;12904;50.088;11.414;2023-04-10T04:21:30;27.33;;;16.75;;
24813;SDS011;12904;50.088;11.414;2023-04-10T04:23:56;25.40;;;16.17;;
24813;SDS011;12904;50.088;11.414;2023-04-10T04:26:21;23.30;;;15.70;;
24813;SDS011;12904;50.088;11.414;2023-04-10T04:28:49;25.02;;;16.55;;
24813;SDS011;12904;50.088;11.414;2023-04-10T04:31:14;26.42;;;15.98;;
24813;SDS011;12904;50.088;11.414;2023-04-10T04:33:40;22.95;;;15.52;;
24813;SDS011;12904;50.088;11.414;2023-04-10T04:36:06;22.95;;;15.65;;
24813;SDS011;12904;50.088;11.414;2023-04-10T04:38:32;25.23;;;16.60;;
24813;SDS011;12904;50.088;11.414;2023-04-10T04:40:57;21.73;;;15.80;;
24813;SDS011;12904;50.088;11.414;2023-04-10T04:43:23;25.65;;;17.42;;
24813;SDS011;12904;50.088;11.414;2023-04-10T04:45:49;29.67;;;16.60;;
24813;SDS011;12904;50.088;11.414;2023-04-10T04:48:15;31.00;;;18.00;;
24813;SDS011;12904;50.088;11.414;2023-04-10T04:50:40;26.02;;;17.25;;
24813;SDS011;12904;50.088;11.414;2023-04-10T04:53:07;31.23;;;17.40;;
24813;SDS011;12904;50.088;11.414;2023-04-10T04:55:35;26.52;;;16.77;;
24813;SDS011;12904;50.088;11.414;2023-04-10T04:58:01;32.13;;;18.25;;
24813;SDS011;12904;50.088;11.414;2023-04-10T05:00:26;26.85;;;17.75;;
24813;SDS011;12904;50.088;11.414;2023-04-10T05:02:52;26.08;;;16.92;;
24813;SDS011;12904;50.088;11.414;2023-04-10T05:05:18;27.23;;;17.73;;
24813;SDS011;12904;50.088;11.414;2023-04-10T05:07:43;29.48;;;18.45;;
24813;SDS011;12904;50.088;11.414;2023-04-10T05:10:09;26.10;;;16.35;;
24813;SDS011;12904;50.088;11.414;2023-04-10T05:12:35;28.10;;;16.05;;
24813;SDS011;12904;50.088;11.414;2023-04-10T05:15:00;21.88;;;15.30;;
24813;SDS011;12904;50.088;11.414;2023-04-10T05:17:26;26.60;;;17.10;;
24813;SDS011;12904;50.088;11.414;2023-04-10T05:19:51;23.25;;;15.75;;
24813;SDS011;12904;50.088;11.414;2023-04-10T05:22:17;23.60;;;15.90;;
24813;SDS011;12904;50.088;11.414;2023-04-10T05:24:43;22.10;;;15.70;;
24813;SDS011;12904;50.088;11.414;2023-04-10T05:27:08;21.98;;;15.60;;
24813;SDS011;12904;50.088;11.414;2023-04-10T05:29:34;23.63;;;15.52;;
24813;SDS011;12904;50.088;11.414;2023-04-10T05:32:00;21.58;;;15.70;;
24813;SDS011;12904;50.088;11.414;2023-04-10T05:34:25;21.02;;;14.75;;
24813;SDS011;12904;50.088;11.414;2023-04-10T05:36:51;24.55;;;15.73;;
24813;SDS011;12904;50.088;11.414;2023-04-10T05:39:16;21.88;;;16.48;;
24813;SDS011;12904;50.088;11.414;2023-04-10T05:41:42;30.70;;;16.85;;
24813;SDS011;12904;50.088;11.414;2023-04-10T05:44:08;20.30;;;15.27;;
24813;SDS011;12904;50.088;11.414;2023-04-10T05:46:33;24.88;;;16.17;;
24813;SDS011;12904;50.088;11.414;2023-04-10T05:48:59;26.13;;;16.55;;
24813;SDS011;12904;50.088;11.414;2023-04-10T05:51:24;27.55;;;15.55;;
24813;SDS011;12904;50.088;11.414;2023-04-10T05:53:51;20.90;;;15.55;;
24813;SDS011;12904;50.088;11.414;2023-04-10T05:56:16;20.02;;;15.55;;
24813;SDS011;12904;50.088;11.414;2023-04-10T05:58:42;21.80;;;16.25;;
24813;SDS011;12904;50.088;11.414;2023-04-10T06:01:08;25.90;;;17.25;;
24813;SDS011;12904;50.088;11.414;2023-04-10T06:03:33;28.63;;;17.00;;
24813;SDS011;12904;50.088;11.414;2023-04-10T06:06:00;24.45;;;16.80;;
24813;SDS011;12904;50.088;11.414;2023-04-10T06:08:26;19.75;;;14.02;;
24813;SDS011;12904;50.088;11.414;2023-04-10T06:10:52;26.05;;;17.60;;
24813;SDS011;12904;50.088;11.414;2023-04-10T06:13:18;21.95;;;15.63;;
24813;SDS011;12904;50.088;11.414;2023-04-10T06:15:44;24.17;;;16.75;;
24813;SDS011;12904;50.088;11.414;2023-04-10T06:18:09;23.02;;;16.73;;
24813;SDS011;12904;50.088;11.414;2023-04-10T06:20:35;30.27;;;18.67;;
24813;SDS011;12904;50.088;11.414;2023-04-10T06:23:01;28.77;;;19.30;;
24813;SDS011;12904;50.088;11.414;2023-04-10T06:25:27;28.42;;;18.02;;
24813;SDS011;12904;50.088;11.414;2023-04-10T06:27:52;31.90;;;18.90;;
24813;SDS011;12904;50.088;11.414;2023-04-10T06:30:18;32.80;;;19.42;;
24813;SDS011;12904;50.088;11.414;2023-04-10T06:32:44;27.05;;;18.80;;
24813;SDS011;12904;50.088;11.414;2023-04-10T06:35:10;31.42;;;19.30;;
24813;SDS011;12904;50.088;11.414;2023-04-10T06:37:36;31.80;;;19.65;;
24813;SDS011;12904;50.088;11.414;2023-04-10T06:42:34;31.48;;;20.88;;
24813;SDS011;12904;50.088;11.414;2023-04-10T06:45:01;32.47;;;20.10;;
24813;SDS011;12904;50.088;11.414;2023-04-10T06:47:27;28.58;;;19.60;;
24813;SDS011;12904;50.088;11.414;2023-04-10T06:49:53;28.95;;;20.00;;
24813;SDS011;12904;50.088;11.414;2023-04-10T06:52:18;35.08;;;21.52;;
24813;SDS011;12904;50.088;11.414;2023-04-10T06:54:44;37.80;;;23.38;;
24813;SDS011;12904;50.088;11.414;2023-04-10T06:57:10;31.58;;;21.08;;
24813;SDS011;12904;50.088;11.414;2023-04-10T06:59:36;31.63;;;20.73;;
24813;SDS011;12904;50.088;11.414;2023-04-10T07:02:02;37.13;;;22.23;;
24813;SDS011;12904;50.088;11.414;2023-04-10T07:04:28;32.47;;;22.50;;
24813;SDS011;12904;50.088;11.414;2023-04-10T07:06:53;35.95;;;21.40;;
24813;SDS011;12904;50.088;11.414;2023-04-10T07:09:19;32.65;;;20.73;;
24813;SDS011;12904;50.088;11.414;2023-04-10T07:11:45;32.22;;;20.63;;
24813;SDS011;12904;50.088;11.414;2023-04-10T07:14:10;29.40;;;20.83;;
24813;SDS011;12904;50.088;11.414;2023-04-10T07:16:36;35.50;;;21.38;;
24813;SDS011;12904;50.088;11.414;2023-04-10T07:19:02;33.72;;;21.20;;
24813;SDS011;12904;50.088;11.414;2023-04-10T07:21:27;35.63;;;21.83;;
24813;SDS011;12904;50.088;11.414;2023-04-10T07:23:53;32.58;;;22.02;;
24813;SDS011;12904;50.088;11.414;2023-04-10T07:26:19;34.80;;;22.10;;
24813;SDS011;12904;50.088;11.414;2023-04-10T07:28:45;31.65;;;21.98;;
24813;SDS011;12904;50.088;11.414;2023-04-10T07:31:10;31.30;;;21.17;;
24813;SDS011;12904;50.088;11.414;2023-04-10T07:33:37;32.03;;;20.73;;
24813;SDS011;12904;50.088;11.414;2023-04-10T07:36:03;31.15;;;22.02;;
24813;SDS011;12904;50.088;11.414;2023-04-10T07:38:32;31.73;;;22.50;;
24813;SDS011;12904;50.088;11.414;2023-04-10T07:40:58;31.92;;;20.55;;
24813;SDS011;12904;50.088;11.414;2023-04-10T07:43:24;29.67;;;20.13;;
24813;SDS011;12904;50.088;11.414;2023-04-10T07:45:50;31.67;;;21.95;;
24813;SDS011;12904;50.088;11.414;2023-04-10T07:48:16;26.40;;;19.65;;
24813;SDS011;12904;50.088;11.414;2023-04-10T07:50:42;27.13;;;20.00;;
24813;SDS011;12904;50.088;11.414;2023-04-10T07:53:08;29.45;;;19.50;;
24813;SDS011;12904;50.088;11.414;2023-04-10T07:55:52;26.80;;;19.92;;
24813;SDS011;12904;50.088;11.414;2023-04-10T07:58:17;25.92;;;19.60;;
24813;SDS011;12904;50.088;11.414;2023-04-10T08:00:43;24.70;;;18.00;;
24813;SDS011;12904;50.088;11.414;2023-04-10T08:03:09;25.33;;;18.92;;
24813;SDS011;12904;50.088;11.414;2023-04-10T08:05:36;27.25;;;20.05;;
24813;SDS011;12904;50.088;11.414;2023-04-10T08:08:02;28.08;;;20.40;;
24813;SDS011;12904;50.088;11.414;2023-04-10T08:10:27;28.60;;;19.08;;
24813;SDS011;12904;50.088;11.414;2023-04-10T08:12:53;24.45;;;18.58;;
24813;SDS011;12904;50.088;11.414;2023-04-10T08:15:18;17.75;;;15.70;;
24813;SDS011;12904;50.088;11.414;2023-04-10T08:17:44;18.10;;;15.82;;
24813;SDS011;12904;50.088;11.414;2023-04-10T08:20:10;19.88;;;16.30;;
24813;SDS011;12904;50.088;11.414;2023-04-10T08:22:36;18.50;;;15.05;;
24813;SDS011;12904;50.088;11.414;2023-04-10T08:25:02;20.13;;;14.65;;
24813;SDS011;12904;50.088;11.414;2023-04-10T08:27:29;15.73;;;13.68;;
24813;SDS011;12904;50.088;11.414;2023-04-10T08:29:55;15.90;;;14.25;;
24813;SDS011;12904;50.088;11.414;2023-04-10T08:32:21;16.38;;;13.80;;
24813;SDS011;12904;50.088;11.414;2023-04-10T08:34:47;13.40;;;12.00;;
24813;SDS011;12904;50.088;11.414;2023-04-10T08:37:13;12.90;;;11.65;;
24813;SDS011;12904;50.088;11.414;2023-04-10T08:39:39;11.35;;;10.23;;
24813;SDS011;12904;50.088;11.414;2023-04-10T08:42:05;12.57;;;11.40;;
24813;SDS011;12904;50.088;11.414;2023-04-10T08:44:31;13.82;;;11.50;;
24813;SDS011;12904;50.088;11.414;2023-04-10T08:46:57;12.80;;;11.60;;
24813;SDS011;12904;50.088;11.414;2023-04-10T08:51:56;12.02;;;10.80;;
24813;SDS011;12904;50.088;11.414;2023-04-10T08:54:34;13.13;;;11.73;;
24813;SDS011;12904;50.088;11.414;2023-04-10T08:57:02;10.93;;;9.95;;
24813;SDS011;12904;50.088;11.414;2023-04-10T08:59:31;11.30;;;9.18;;
24813;SDS011;12904;50.088;11.414;2023-04-10T09:01:57;9.52;;;8.20;;
24813;SDS011;12904;50.088;11.414;2023-04-10T09:04:24;7.53;;;6.82;;
24813;SDS011;12904;50.088;11.414;2023-04-10T09:06:53;7.32;;;6.63;;
24813;SDS011;12904;50.088;11.414;2023-04-10T09:09:19;9.02;;;8.13;;
24813;SDS011;12904;50.088;11.414;2023-04-10T09:12:03;8.25;;;7.50;;
24813;SDS011;12904;50.088;11.414;2023-04-10T09:14:31;8.32;;;7.60;;
24813;SDS011;12904;50.088;11.414;2023-04-10T09:17:17;8.18;;;7.47;;
24813;SDS011;12904;50.088;11.414;2023-04-10T09:19:53;7.93;;;7.22;;
24813;SDS011;12904;50.088;11.414;2023-04-10T09:22:29;10.15;;;8.00;;
24813;SDS011;12904;50.088;11.414;2023-04-10T09:24:59;7.57;;;6.93;;
24813;SDS011;12904;50.088;11.414;2023-04-10T09:27:34;6.90;;;6.30;;
24813;SDS011;12904;50.088;11.414;2023-04-10T09:30:01;6.85;;;6.25;;
24813;SDS011;12904;50.088;11.414;2023-04-10T09:32:41;6.18;;;5.63;;
24813;SDS011;12904;50.088;11.414;2023-04-10T09:35:09;7.43;;;6.82;;
24813;SDS011;12904;50.088;11.414;2023-04-10T09:37:36;7.13;;;6.53;;
24813;SDS011;12904;50.088;11.414;2023-04-10T09:40:03;6.70;;;6.10;;
24813;SDS011;12904;50.088;11.414;2023-04-10T09:42:34;7.13;;;6.53;;
24813;SDS011;12904;50.088;11.414;2023-04-10T09:45:04;7.68;;;7.07;;
24813;SDS011;12904;50.088;11.414;2023-04-10T09:47:30;8.63;;;7.82;;
24813;SDS011;12904;50.088;11.414;2023-04-10T09:49:57;7.55;;;6.95;;
24813;SDS011;12904;50.088;11.414;2023-04-10T09:52:27;7.32;;;6.63;;
24813;SDS011;12904;50.088;11.414;2023-04-10T09:55:00;7.47;;;6.82;;
24813;SDS011;12904;50.088;11.414;2023-04-10T09:57:28;7.55;;;6.95;;
24813;SDS011;12904;50.088;11.414;2023-04-10T09:59:56;7.45;;;6.75;;
24813;SDS011;12904;50.088;11.414;2023-04-10T10:02:24;8.35;;;7.65;;
24813;SDS011;12904;50.088;11.414;2023-04-10T10:04:52;8.07;;;6.90;;
24813;SDS011;12904;50.088;11.414;2023-04-10T10:07:19;6.57;;;6.07;;
24813;SDS011;12904;50.088;11.414;2023-04-10T10:09:48;7.80;;;7.10;;
24813;SDS011;12904;50.088;11.414;2023-04-10T10:12:18;7.93;;;7.13;;
24813;SDS011;12904;50.088;11.414;2023-04-10T10:17:52;7.28;;;6.68;;
24813;SDS011;12904;50.088;11.414;2023-04-10T10:22:50;8.85;;;8.05;;
24813;SDS011;12904;50.088;11.414;2023-04-10T10:25:17;8.38;;;7.68;;
24813;SDS011;12904;50.088;11.414;2023-04-10T10:27:44;8.07;;;7.38;;
24813;SDS011;12904;50.088;11.414;2023-04-10T10:30:13;8.10;;;7.40;;
24813;SDS011;12904;50.088;11.414;2023-04-10T10:32:41;8.43;;;7.72;;
24813;SDS011;12904;50.088;11.414;2023-04-10T10:35:09;7.85;;;7.25;;
24813;SDS011;12904;50.088;11.414;2023-04-10T10:37:35;7.97;;;7.28;;
24813;SDS011;12904;50.088;11.414;2023-04-10T10:45:22;8.45;;;7.65;;
24813;SDS011;12904;50.088;11.414;2023-04-10T10:47:55;8.50;;;7.80;;
24813;SDS011;12904;50.088;11.414;2023-04-10T10:50:20;8.63;;;7.93;;
24813;SDS011;12904;50.088;11.414;2023-04-10T10:52:51;8.10;;;7.40;;
24813;SDS011;12904;50.088;11.414;2023-04-10T10:55:27;8.02;;;7.38;;
24813;SDS011;12904;50.088;11.414;2023-04-10T10:57:57;9.05;;;8.27;;
24813;SDS011;12904;50.088;11.414;2023-04-10T11:00:25;8.32;;;7.63;;
24813;SDS011;12904;50.088;11.414;2023-04-10T11:05:51;8.00;;;7.30;;
24813;SDS011;12904;50.088;11.414;2023-04-10T11:13:30;8.38;;;7.63;;
24813;SDS011;12904;50.088;11.414;2023-04-10T11:16:01;9.73;;;8.87;;
24813;SDS011;12904;50.088;11.414;2023-04-10T11:31:54;7.90;;;7.10;;
24813;SDS011;12904;50.088;11.414;2023-04-10T11:34:21;7.55;;;6.95;;
24813;SDS011;12904;50.088;11.414;2023-04-10T11:36:47;7.97;;;7.32;;
24813;SDS011;12904;50.088;11.414;2023-04-10T11:39:16;7.10;;;6.50;;
24813;SDS011;12904;50.088;11.414;2023-04-10T11:41:43;7.43;;;6.82;;
24813;SDS011;12904;50.088;11.414;2023-04-10T11:44:10;7.70;;;7.00;;
24813;SDS011;12904;50.088;11.414;2023-04-10T11:46:38;7.22;;;6.47;;
24813;SDS011;12904;50.088;11.414;2023-04-10T11:49:09;8.18;;;7.38;;
24813;SDS011;12904;50.088;11.414;2023-04-10T11:51:38;6.88;;;6.28;;
24813;SDS011;12904;50.088;11.414;2023-04-10T11:54:11;6.85;;;6.25;;
24813;SDS011;12904;50.088;11.414;2023-04-10T11:56:42;7.65;;;6.95;;
24813;SDS011;12904;50.088;11.414;2023-04-10T11:59:09;7.43;;;6.72;;
24813;SDS011;12904;50.088;11.414;2023-04-10T12:01:37;5.60;;;5.10;;
24813;SDS011;12904;50.088;11.414;2023-04-10T12:04:14;6.65;;;6.05;;
24813;SDS011;12904;50.088;11.414;2023-04-10T12:06:44;6.10;;;5.60;;
24813;SDS011;12904;50.088;11.414;2023-04-10T12:09:12;5.93;;;5.43;;
24813;SDS011;12904;50.088;11.414;2023-04-10T12:11:46;5.72;;;5.22;;
24813;SDS011;12904;50.088;11.414;2023-04-10T12:14:33;5.50;;;5.10;;
24813;SDS011;12904;50.088;11.414;2023-04-10T12:17:04;5.53;;;5.07;;
24813;SDS011;12904;50.088;11.414;2023-04-10T12:19:31;5.40;;;5.00;;
24813;SDS011;12904;50.088;11.414;2023-04-10T12:21:58;5.72;;;5.32;;
24813;SDS011;12904;50.088;11.414;2023-04-10T12:29:53;4.57;;;4.18;;
24813;SDS011;12904;50.088;11.414;2023-04-10T12:32:20;5.25;;;4.75;;
24813;SDS011;12904;50.088;11.414;2023-04-10T12:34:49;4.78;;;4.05;;
24813;SDS011;12904;50.088;11.414;2023-04-10T12:37:22;4.70;;;4.30;;
24813;SDS011;12904;50.088;11.414;2023-04-10T12:39:48;4.15;;;3.80;;
24813;SDS011;12904;50.088;11.414;2023-04-10T12:42:19;5.28;;;4.78;;
24813;SDS011;12904;50.088;11.414;2023-04-10T12:44:53;4.68;;;4.28;;
24813;SDS011;12904;50.088;11.414;2023-04-10T12:47:23;6.70;;;5.60;;
24813;SDS011;12904;50.088;11.414;2023-04-10T12:50:08;4.53;;;4.13;;
24813;SDS011;12904;50.088;11.414;2023-04-10T12:52:36;4.72;;;4.32;;
24813;SDS011;12904;50.088;11.414;2023-04-10T12:55:10;4.22;;;3.85;;
24813;SDS011;12904;50.088;11.414;2023-04-10T12:57:40;5.88;;;4.30;;
24813;SDS011;12904;50.088;11.414;2023-04-10T13:00:09;4.93;;;4.47;;
24813;SDS011;12904;50.088;11.414;2023-04-10T13:02:36;4.47;;;4.10;;
24813;SDS011;12904;50.088;11.414;2023-04-10T13:05:06;4.85;;;4.45;;
24813;SDS011;12904;50.088;11.414;2023-04-10T13:07:32;5.18;;;4.68;;
24813;SDS011;12904;50.088;11.414;2023-04-10T13:09:58;3.97;;;3.65;;
24813;SDS011;12904;50.088;11.414;2023-04-10T13:12:24;4.05;;;3.75;;
24813;SDS011;12904;50.088;11.414;2023-04-10T13:14:52;4.45;;;4.05;;
24813;SDS011;12904;50.088;11.414;2023-04-10T13:17:19;4.30;;;3.90;;
24813;SDS011;12904;50.088;11.414;2023-04-10T13:19:45;4.25;;;3.85;;
24813;SDS011;12904;50.088;11.414;2023-04-10T13:22:11;4.47;;;4.07;;
24813;SDS011;12904;50.088;11.414;2023-04-10T13:24:37;4.50;;;4.10;;
24813;SDS011;12904;50.088;11.414;2023-04-10T13:27:02;3.65;;;3.35;;
24813;SDS011;12904;50.088;11.414;2023-04-10T13:29:28;4.07;;;3.78;;
24813;SDS011;12904;50.088;11.414;2023-04-10T13:31:54;3.85;;;3.55;;
24813;SDS011;12904;50.088;11.414;2023-04-10T13:34:20;3.78;;;3.47;;
24813;SDS011;12904;50.088;11.414;2023-04-10T13:36:45;4.20;;;3.80;;
24813;SDS011;12904;50.088;11.414;2023-04-10T13:39:12;4.25;;;3.95;;
24813;SDS011;12904;50.088;11.414;2023-04-10T13:41:37;4.47;;;3.88;;
24813;SDS011;12904;50.088;11.414;2023-04-10T13:44:03;3.70;;;3.40;;
24813;SDS011;12904;50.088;11.414;2023-04-10T13:46:29;4.43;;;4.05;;
24813;SDS011;12904;50.088;11.414;2023-04-10T13:48:55;4.60;;;4.20;;
24813;SDS011;12904;50.088;11.414;2023-04-10T13:51:21;4.03;;;3.72;;
24813;SDS011;12904;50.088;11.414;2023-04-10T13:53:46;3.75;;;3.45;;
24813;SDS011;12904;50.088;11.414;2023-04-10T13:56:12;3.90;;;3.60;;
24813;SDS011;12904;50.088;11.414;2023-04-10T13:58:37;4.40;;;4.00;;
24813;SDS011;12904;50.088;11.414;2023-04-10T14:01:03;3.40;;;3.05;;
24813;SDS011;12904;50.088;11.414;2023-04-10T14:03:29;4.40;;;4.00;;
24813;SDS011;12904;50.088;11.414;2023-04-10T14:05:55;3.80;;;3.50;;
24813;SDS011;12904;50.088;11.414;2023-04-10T14:08:20;4.05;;;3.75;;
24813;SDS011;12904;50.088;11.414;2023-04-10T14:10:46;3.65;;;3.35;;
24813;SDS011;12904;50.088;11.414;2023-04-10T14:13:16;3.85;;;3.55;;
24813;SDS011;12904;50.088;11.414;2023-04-10T14:15:42;3.92;;;3.63;;
24813;SDS011;12904;50.088;11.414;2023-04-10T14:18:08;3.72;;;3.42;;
24813;SDS011;12904;50.088;11.414;2023-04-10T14:20:33;3.70;;;3.40;;
24813;SDS011;12904;50.088;11.414;2023-04-10T14:22:59;4.50;;;3.47;;
24813;SDS011;12904;50.088;11.414;2023-04-10T14:25:25;3.75;;;3.45;;
24813;SDS011;12904;50.088;11.414;2023-04-10T14:27:50;3.67;;;3.38;;
24813;SDS011;12904;50.088;11.414;2023-04-10T14:30:16;4.53;;;4.13;;
24813;SDS011;12904;50.088;11.414;2023-04-10T14:32:42;3.85;;;3.55;;
24813;SDS011;12904;50.088;11.414;2023-04-10T14:35:08;4.75;;;4.32;;
24813;SDS011;12904;50.088;11.414;2023-04-10T14:37:33;3.90;;;3.60;;
24813;SDS011;12904;50.088;11.414;2023-04-10T14:39:59;4.57;;;4.18;;
24813;SDS011;12904;50.088;11.414;2023-04-10T14:42:25;4.65;;;4.25;;
24813;SDS011;12904;50.088;11.414;2023-04-10T14:44:51;3.30;;;3.00;;
24813;SDS011;12904;50.088;11.414;2023-04-10T14:47:17;3.70;;;3.40;;
24813;SDS011;12904;50.088;11.414;2023-04-10T14:49:42;3.88;;;3.40;;
24813;SDS011;12904;50.088;11.414;2023-04-10T14:52:08;3.70;;;3.40;;
24813;SDS011;12904;50.088;11.414;2023-04-10T14:54:34;4.30;;;3.53;;
24813;SDS011;12904;50.088;11.414;2023-04-10T14:56:59;4.07;;;3.78;;
24813;SDS011;12904;50.088;11.414;2023-04-10T14:59:25;4.40;;;4.00;;
24813;SDS011;12904;50.088;11.414;2023-04-10T15:01:51;3.80;;;3.50;;
24813;SDS011;12904;50.088;11.414;2023-04-10T15:04:17;3.70;;;3.40;;
24813;SDS011;12904;50.088;11.414;2023-04-10T15:06:43;4.10;;;3.80;;
24813;SDS011;12904;50.088;11.414;2023-04-10T15:09:09;3.65;;;3.35;;
24813;SDS011;12904;50.088;11.414;2023-04-10T15:11:35;4.32;;;3.92;;
24813;SDS011;12904;50.088;11.414;2023-04-10T15:14:01;3.80;;;3.50;;